createdAt,value
2022-09-23T00:01:47.862Z,97820.91
2022-09-23T00:04:17.341Z,97821.63
2022-09-23T00:06:46.482Z,97824.41
2022-09-23T00:09:15.486Z,97820.06
2022-09-23T00:11:44.549Z,97824.88
2022-09-23T00:14:13.496Z,97822.00
2022-09-23T00:16:43.295Z,97822.00
2022-09-23T00:19:12.145Z,97821.75
2022-09-23T00:21:41.557Z,97827.88
2022-09-23T00:24:11.488Z,97831.69
2022-09-23T00:26:40.303Z,97823.88
2022-09-23T00:29:09.586Z,97823.88
2022-09-23T00:31:38.488Z,97831.06
2022-09-23T00:34:07.983Z,97831.56
2022-09-23T00:36:37.035Z,97831.06
2022-09-23T00:39:06.379Z,97833.31
2022-09-23T00:41:36.438Z,97835.97
2022-09-23T00:45:00.209Z,97832.75
2022-09-23T00:47:57.930Z,97843.25
2022-09-23T00:50:37.715Z,97849.69
2022-09-23T00:53:10.830Z,97853.53
2022-09-23T00:55:50.692Z,97849.31
2022-09-23T00:58:32.287Z,97855.66
2022-09-23T01:01:04.124Z,97857.81
2022-09-23T01:03:39.383Z,97859.97
2022-09-23T01:06:14.147Z,97864.06
2022-09-23T01:08:51.567Z,97873.47
2022-09-23T01:11:42.170Z,97870.31
2022-09-23T01:14:30.496Z,97879.28
2022-09-23T01:17:31.549Z,97878.19
2022-09-23T01:20:37.471Z,97880.47
2022-09-23T01:23:25.291Z,97882.00
2022-09-23T01:26:13.896Z,97879.31
2022-09-23T01:29:08.039Z,97876.00
2022-09-23T01:31:48.158Z,97878.06
2022-09-23T01:34:40.683Z,97883.69
2022-09-23T01:37:20.474Z,97887.78
2022-09-23T01:40:05.591Z,97889.00
2022-09-23T01:42:50.533Z,97891.63
2022-09-23T01:45:40.377Z,97890.09
2022-09-23T01:48:15.021Z,97893.13
2022-09-23T01:51:11.140Z,97898.03
2022-09-23T01:54:08.110Z,97904.28
2022-09-23T01:56:44.823Z,97905.19
2022-09-23T01:59:27.800Z,97903.19
2022-09-23T02:02:16.500Z,97910.84
2022-09-23T02:04:55.271Z,97916.38
2022-09-23T02:07:40.764Z,97919.72
2022-09-23T02:10:27.802Z,97921.88
2022-09-23T02:13:07.824Z,97919.22
2022-09-23T02:15:43.084Z,97920.09
2022-09-23T02:18:36.959Z,97923.69
2022-09-23T02:21:10.523Z,97921.66
2022-09-23T02:23:56.634Z,97929.56
2022-09-23T02:26:41.546Z,97926.78
2022-09-23T02:29:33.282Z,97933.19
2022-09-23T02:32:26.135Z,97937.72
2022-09-23T02:35:11.461Z,97931.50
2022-09-23T02:38:18.522Z,97934.59
2022-09-23T02:41:07.618Z,97945.75
2022-09-23T02:43:56.336Z,97943.91
2022-09-23T02:46:29.888Z,97948.22
2022-09-23T02:49:25.528Z,97950.75
2022-09-23T02:51:59.124Z,97943.31
2022-09-23T02:54:31.476Z,97946.53
2022-09-23T02:57:12.309Z,97949.41
2022-09-23T02:59:45.501Z,97955.44
2022-09-23T03:02:19.476Z,97955.53
2022-09-23T03:05:05.469Z,97956.81
2022-09-23T03:08:11.937Z,97954.84
2022-09-23T03:11:06.690Z,97954.31
2022-09-23T03:14:06.770Z,97956.47
2022-09-23T03:17:17.043Z,97956.84
2022-09-23T03:20:04.140Z,97953.63
2022-09-23T03:22:46.196Z,97950.13
2022-09-23T03:25:26.921Z,97948.66
2022-09-23T03:28:02.495Z,97951.06
2022-09-23T03:30:39.431Z,97956.34
2022-09-23T03:33:15.196Z,97959.56
2022-09-23T03:36:25.572Z,97965.22
2022-09-23T03:39:06.468Z,97965.78
2022-09-23T03:41:53.601Z,97962.88
2022-09-23T03:44:26.716Z,97963.06
2022-09-23T03:47:09.953Z,97967.63
2022-09-23T03:50:02.023Z,97967.72
2022-09-23T03:52:36.710Z,97969.66
2022-09-23T03:55:16.561Z,97974.72
2022-09-23T03:57:52.015Z,97975.75
2022-09-23T04:00:23.679Z,97973.41
2022-09-23T04:03:10.876Z,97977.25
2022-09-23T04:05:54.964Z,97984.09
2022-09-23T04:08:30.400Z,97980.78
2022-09-23T04:11:15.181Z,97983.50
2022-09-23T04:13:51.588Z,97985.16
2022-09-23T04:16:26.091Z,97987.06
2022-09-23T04:18:58.805Z,97984.38
2022-09-23T04:21:33.508Z,97981.06
2022-09-23T04:24:06.483Z,97993.78
2022-09-23T04:26:39.665Z,97988.25
2022-09-23T04:29:13.778Z,97985.91
2022-09-23T04:31:45.626Z,97987.38
2022-09-23T04:34:19.986Z,97988.34
2022-09-23T04:36:54.983Z,97993.66
2022-09-23T04:39:27.675Z,97991.59
2022-09-23T04:42:04.725Z,97991.09
2022-09-23T04:44:37.528Z,97984.09
2022-09-23T04:47:17.483Z,97997.59
2022-09-23T04:49:51.493Z,97988.69
2022-09-23T04:52:25.882Z,97988.50
2022-09-23T04:54:58.801Z,97992.81
2022-09-23T04:57:32.654Z,97989.63
2022-09-23T05:00:06.422Z,97997.28
2022-09-23T05:03:02.449Z,97995.13
2022-09-23T05:05:37.579Z,97995.81
2022-09-23T05:08:10.485Z,98004.59
2022-09-23T05:10:47.339Z,98004.69
2022-09-23T05:13:20.543Z,98007.22
2022-09-23T05:15:52.401Z,98008.63
2022-09-23T05:18:24.178Z,98003.34
2022-09-23T05:21:06.971Z,98005.28
2022-09-23T05:23:43.185Z,98008.06
2022-09-23T05:26:17.795Z,98014.63
2022-09-23T05:28:50.930Z,98010.53
2022-09-23T05:31:36.398Z,98016.19
2022-09-23T05:34:27.533Z,98011.75
2022-09-23T05:37:16.349Z,98006.81
2022-09-23T05:40:02.944Z,98008.34
2022-09-23T05:42:38.727Z,98011.28
2022-09-23T05:45:12.056Z,98012.66
2022-09-23T05:47:56.072Z,98011.97
2022-09-23T05:50:31.206Z,98008.22
2022-09-23T05:53:06.638Z,98010.72
2022-09-23T05:55:39.557Z,98009.63
2022-09-23T06:01:01.910Z,98010.19
2022-09-23T06:03:30.950Z,98018.66
2022-09-23T06:05:59.972Z,98009.75
2022-09-23T06:08:29.418Z,98011.72
2022-09-23T06:10:59.463Z,98002.75
2022-09-23T06:13:28.826Z,98003.69
2022-09-23T06:15:59.617Z,98005.06
2022-09-23T06:18:28.822Z,98002.81
2022-09-23T06:21:01.487Z,98000.31
2022-09-23T06:23:31.666Z,98004.19
2022-09-23T06:28:50.123Z,97996.34
2022-09-23T06:31:24.164Z,97997.06
2022-09-23T06:34:02.426Z,97993.97
2022-09-23T06:36:46.424Z,98000.50
2022-09-23T06:39:17.011Z,97990.28
2022-09-23T06:41:46.736Z,97988.44
2022-09-23T06:44:16.648Z,97977.28
2022-09-23T06:46:48.163Z,97975.06
2022-09-23T06:49:21.201Z,97974.47
2022-09-23T06:51:51.431Z,97976.88
2022-09-23T06:54:21.381Z,97975.53
2022-09-23T06:56:50.308Z,97975.63
2022-09-23T06:59:19.795Z,97968.94
2022-09-23T07:01:49.293Z,97959.31
2022-09-23T07:04:18.972Z,97963.72
2022-09-23T07:06:47.926Z,97962.72
2022-09-23T07:09:17.027Z,97962.78
2022-09-23T07:11:48.464Z,97960.97
2022-09-23T07:14:17.379Z,97949.44
2022-09-23T07:16:46.616Z,97947.44
2022-09-23T07:19:15.714Z,97939.38
2022-09-23T07:21:45.064Z,97941.47
2022-09-23T07:24:14.237Z,97935.53
2022-09-23T07:26:45.683Z,97943.59
2022-09-23T07:29:44.088Z,97939.91
2022-09-23T07:32:18.321Z,97935.53
2022-09-23T07:34:48.425Z,97921.06
2022-09-23T07:37:18.675Z,97914.41
2022-09-23T07:39:47.959Z,97918.72
2022-09-23T07:42:17.021Z,97930.38
2022-09-23T07:44:47.186Z,97931.00
2022-09-23T07:47:16.779Z,97938.81
2022-09-23T07:49:45.957Z,97948.16
2022-09-23T07:52:15.205Z,97959.63
2022-09-23T07:54:44.346Z,97940.56
2022-09-23T07:57:13.245Z,97930.38
2022-09-23T07:59:44.485Z,97930.84
2022-09-23T08:02:16.003Z,97926.41
2022-09-23T08:04:50.245Z,97909.94
2022-09-23T08:07:20.089Z,97903.38
2022-09-23T08:09:49.826Z,97898.13
2022-09-23T08:12:20.892Z,97909.69
2022-09-23T08:14:50.013Z,97905.50
2022-09-23T08:17:19.475Z,97888.91
2022-09-23T08:19:48.746Z,97886.59
2022-09-23T08:22:18.176Z,97923.72
2022-09-23T08:24:47.086Z,97917.47
2022-09-23T08:27:16.257Z,97930.97
2022-09-23T08:29:46.044Z,97968.41
2022-09-23T08:32:15.579Z,97993.94
2022-09-23T08:34:45.057Z,97989.66
2022-09-23T08:37:14.603Z,97998.66
2022-09-23T08:39:43.423Z,98007.25
2022-09-23T08:42:33.543Z,98007.50
2022-09-23T08:45:06.166Z,97989.09
2022-09-23T08:48:01.655Z,97990.34
2022-09-23T08:50:43.637Z,97976.56
2022-09-23T08:53:32.217Z,97958.25
2022-09-23T08:56:08.896Z,97951.69
2022-09-23T08:59:02.112Z,97931.22
2022-09-23T09:01:45.862Z,97905.22
2022-09-23T09:04:23.477Z,97881.47
2022-09-23T09:07:24.612Z,97861.41
2022-09-23T09:10:17.898Z,97840.47
2022-09-23T09:13:12.527Z,97831.69
2022-09-23T09:16:00.121Z,97812.91
2022-09-23T09:18:33.341Z,97798.31
2022-09-23T09:21:11.690Z,97783.84
2022-09-23T09:23:46.752Z,97788.16
2022-09-23T09:26:25.884Z,97787.88
2022-09-23T09:29:23.837Z,97775.00
2022-09-23T09:31:57.387Z,97767.44
2022-09-23T09:34:41.209Z,97750.72
2022-09-23T09:37:13.703Z,97743.38
2022-09-23T09:39:43.197Z,97739.59
2022-09-23T09:42:28.506Z,97738.09
2022-09-23T09:45:06.434Z,97718.97
2022-09-23T09:47:52.592Z,97714.50
2022-09-23T09:51:05.414Z,97735.28
2022-09-23T09:53:37.168Z,97735.06
2022-09-23T09:56:12.302Z,97745.81
2022-09-23T09:58:52.449Z,97742.66
2022-09-23T10:01:27.127Z,97740.56
2022-09-23T10:07:33.345Z,97743.94
2022-09-23T10:10:34.949Z,97749.44
2022-09-23T10:13:17.241Z,97753.91
2022-09-23T10:16:02.211Z,97755.41
2022-09-23T10:18:58.090Z,97762.19
2022-09-23T10:21:34.565Z,97764.06
2022-09-23T10:24:08.081Z,97770.06
2022-09-23T10:26:45.868Z,97770.00
2022-09-23T10:29:24.535Z,97770.72
2022-09-23T10:32:31.567Z,97775.34
2022-09-23T10:35:16.770Z,97784.13
2022-09-23T10:37:51.987Z,97778.72
2022-09-23T10:41:02.799Z,97777.84
2022-09-23T10:43:59.233Z,97788.63
2022-09-23T10:46:48.813Z,97781.44
2022-09-23T10:49:56.445Z,97775.66
2022-09-23T10:52:53.198Z,97774.34
2022-09-23T10:56:03.777Z,97770.94
2022-09-23T10:59:15.481Z,97783.53
2022-09-23T11:02:05.390Z,97792.28
2022-09-23T11:04:52.865Z,97783.81
2022-09-23T11:07:40.617Z,97785.78
2022-09-23T11:10:23.240Z,97782.47
2022-09-23T11:13:10.203Z,97778.09
2022-09-23T11:16:05.190Z,97768.91
2022-09-23T11:19:09.719Z,97760.97
2022-09-23T11:22:23.324Z,97753.44
2022-09-23T11:24:59.284Z,97746.31
2022-09-23T11:27:56.405Z,97740.56
2022-09-23T11:30:44.319Z,97741.72
2022-09-23T11:33:37.909Z,97739.94
2022-09-23T11:36:13.727Z,97750.47
2022-09-23T11:38:49.032Z,97749.91
2022-09-23T11:41:29.548Z,97746.81
2022-09-23T11:44:10.009Z,97736.28
2022-09-23T11:47:04.977Z,97739.72
2022-09-23T11:49:46.137Z,97739.31
2022-09-23T11:52:33.365Z,97746.72
2022-09-23T11:55:21.588Z,97750.75
2022-09-23T11:57:59.406Z,97743.75
2022-09-23T12:00:39.650Z,97741.38
2022-09-23T12:03:26.575Z,97735.34
2022-09-23T12:06:21.109Z,97740.22
2022-09-23T12:08:56.718Z,97749.34
2022-09-23T12:11:28.660Z,97738.94
2022-09-23T12:14:17.489Z,97732.16
2022-09-23T12:17:08.333Z,97728.97
2022-09-23T12:20:02.383Z,97726.03
2022-09-23T12:22:50.374Z,97733.66
2022-09-23T12:25:44.297Z,97742.06
2022-09-23T12:28:24.609Z,97745.56
2022-09-23T12:30:55.966Z,97741.28
2022-09-23T12:33:34.328Z,97745.16
2022-09-23T12:36:09.985Z,97751.03
2022-09-23T12:38:51.276Z,97753.81
2022-09-23T12:41:38.651Z,97751.44
2022-09-23T12:44:14.719Z,97751.84
2022-09-23T12:46:47.956Z,97753.38
2022-09-23T12:49:29.362Z,97751.72
2022-09-23T12:52:19.597Z,97746.47
2022-09-23T12:54:51.037Z,97748.00
2022-09-23T12:57:35.364Z,97759.09
2022-09-23T13:00:13.229Z,97753.25
2022-09-23T13:03:15.068Z,97759.59
2022-09-23T13:06:07.812Z,97755.63
2022-09-23T13:08:42.027Z,97757.66
2022-09-23T13:11:26.900Z,97755.19
2022-09-23T13:14:00.963Z,97749.09
2022-09-23T13:16:45.026Z,97749.75
2022-09-23T13:19:38.568Z,97743.31
2022-09-23T13:22:12.395Z,97743.00
2022-09-23T13:24:46.909Z,97746.47
2022-09-23T13:27:27.814Z,97749.94
2022-09-23T13:30:15.418Z,97756.38
2022-09-23T13:33:14.089Z,97755.94
2022-09-23T13:35:54.316Z,97756.31
2022-09-23T13:38:30.877Z,97750.47
2022-09-23T13:41:09.135Z,97755.19
2022-09-23T13:43:52.402Z,97761.34
2022-09-23T13:46:31.339Z,97767.69
2022-09-23T13:49:00.821Z,97766.53
2022-09-23T13:51:36.134Z,97769.13
2022-09-23T13:54:07.546Z,97770.88
2022-09-23T13:56:38.765Z,97759.94
2022-09-23T13:59:22.103Z,97776.06
2022-09-23T14:01:51.272Z,97774.94
2022-09-23T14:04:29.161Z,97775.72
2022-09-23T14:06:58.772Z,97781.28
2022-09-23T14:09:30.264Z,97778.09
2022-09-23T14:12:02.320Z,97784.84
2022-09-23T14:14:32.436Z,97787.97
2022-09-23T14:17:02.521Z,97793.59
2022-09-23T14:19:33.057Z,97801.41
2022-09-23T14:22:02.466Z,97801.34
2022-09-23T14:24:31.444Z,97800.31
2022-09-23T14:27:02.553Z,97802.72
2022-09-23T14:29:36.175Z,97802.81
2022-09-23T14:32:26.903Z,97798.31
2022-09-23T14:35:01.651Z,97800.00
2022-09-23T14:37:57.960Z,97799.22
2022-09-23T14:40:36.912Z,97797.28
2022-09-23T14:43:07.089Z,97808.34
2022-09-23T14:45:39.746Z,97810.28
2022-09-23T14:48:14.178Z,97805.34
2022-09-23T14:50:57.484Z,97814.78
2022-09-23T14:53:44.010Z,97806.38
2022-09-23T14:56:18.891Z,97811.97
2022-09-23T14:58:57.829Z,97812.06
2022-09-23T15:01:33.325Z,97808.22
2022-09-23T15:04:14.191Z,97804.56
2022-09-23T15:07:00.808Z,97807.72
2022-09-23T15:09:48.237Z,97801.41
2022-09-23T15:12:22.409Z,97812.06
2022-09-23T15:14:55.260Z,97812.56
2022-09-23T15:17:24.253Z,97820.03
2022-09-23T15:20:00.279Z,97826.00
2022-09-23T15:22:29.603Z,97831.25
2022-09-23T15:25:19.608Z,97835.44
2022-09-23T15:28:10.389Z,97834.06
2022-09-23T15:30:40.926Z,97826.41
2022-09-23T15:33:15.216Z,97830.81
2022-09-23T15:35:48.959Z,97834.59
2022-09-23T15:38:22.407Z,97839.63
2022-09-23T15:40:52.034Z,97839.63
2022-09-23T15:43:24.837Z,97836.28
2022-09-23T15:46:03.094Z,97832.38
2022-09-23T15:48:42.329Z,97832.88
2022-09-23T15:51:16.270Z,97829.84
2022-09-23T15:53:45.659Z,97837.94
2022-09-23T15:56:14.840Z,97837.13
2022-09-23T15:58:44.253Z,97833.88
2022-09-23T16:01:30.785Z,97832.69
2022-09-23T16:04:05.029Z,97827.44
2022-09-23T16:06:36.522Z,97825.56
2022-09-23T16:09:05.757Z,97825.56
2022-09-23T16:11:38.421Z,97829.13
2022-09-23T16:14:09.630Z,97826.28
2022-09-23T16:16:38.974Z,97821.97
2022-09-23T16:19:08.049Z,97817.69
2022-09-23T16:21:37.048Z,97809.81
2022-09-23T16:24:06.450Z,97816.94
2022-09-23T16:26:36.996Z,97807.66
2022-09-23T16:29:06.763Z,97812.69
2022-09-23T16:31:37.291Z,97812.66
2022-09-23T16:34:07.049Z,97808.16
2022-09-23T16:36:43.032Z,97804.31
2022-09-23T16:39:14.606Z,97806.81
2022-09-23T16:41:44.499Z,97798.91
2022-09-23T16:44:13.614Z,97803.41
2022-09-23T16:46:44.049Z,97805.13
2022-09-23T16:49:13.196Z,97809.00
2022-09-23T16:51:43.226Z,97807.63
2022-09-23T16:54:13.953Z,97809.22
2022-09-23T16:56:46.481Z,97802.84
2022-09-23T16:59:17.125Z,97802.84
2022-09-23T17:02:05.488Z,97793.19
2022-09-23T17:04:34.856Z,97797.16
2022-09-23T17:07:03.867Z,97793.47
2022-09-23T17:09:33.757Z,97795.28
2022-09-23T17:12:24.676Z,97789.63
2022-09-23T17:14:54.096Z,97796.63
2022-09-23T17:17:23.547Z,97787.88
2022-09-23T17:19:52.559Z,97793.03
2022-09-23T17:22:22.076Z,97784.53
2022-09-23T17:24:52.175Z,97790.03
2022-09-23T17:27:22.599Z,97789.00
2022-09-23T17:29:51.941Z,97788.84
2022-09-23T17:32:22.228Z,97788.53
2022-09-23T17:34:51.793Z,97789.25
2022-09-23T17:37:21.257Z,97784.47
2022-09-23T17:39:51.262Z,97789.41
2022-09-23T17:42:23.206Z,97787.00
2022-09-23T17:44:52.366Z,97787.47
2022-09-23T17:47:21.294Z,97785.06
2022-09-23T17:49:50.925Z,97781.56
2022-09-23T17:52:21.083Z,97789.94
2022-09-23T17:54:50.116Z,97798.94
2022-09-23T17:57:19.269Z,97806.50
2022-09-23T17:59:51.853Z,97794.31
2022-09-23T18:02:23.762Z,97807.97
2022-09-23T18:04:53.111Z,97800.38
2022-09-23T18:07:22.660Z,97808.34
2022-09-23T18:09:51.818Z,97802.97
2022-09-23T18:12:21.161Z,97802.63
2022-09-23T18:14:50.345Z,97799.06
2022-09-23T18:17:19.153Z,97797.44
2022-09-23T18:19:50.406Z,97792.84
2022-09-23T18:22:19.494Z,97788.97
2022-09-23T18:24:48.467Z,97790.34
2022-09-23T18:27:17.574Z,97787.19
2022-09-23T18:29:46.662Z,97782.34
2022-09-23T18:32:16.247Z,97779.53
2022-09-23T18:34:45.351Z,97774.69
2022-09-23T18:37:16.036Z,97765.88
2022-09-23T18:39:45.566Z,97765.25
2022-09-23T18:42:15.283Z,97761.75
2022-09-23T18:44:44.431Z,97767.44
2022-09-23T18:47:33.378Z,97775.44
2022-09-23T18:50:20.654Z,97779.41
2022-09-23T18:52:49.987Z,97786.13
2022-09-23T18:55:21.456Z,97785.81
2022-09-23T18:57:51.120Z,97791.56
2022-09-23T19:00:20.973Z,97783.47
2022-09-23T19:02:50.029Z,97779.94
2022-09-23T19:05:20.133Z,97775.19
2022-09-23T19:07:49.277Z,97784.19
2022-09-23T19:10:20.214Z,97778.22
2022-09-23T19:12:49.512Z,97779.81
2022-09-23T19:15:19.020Z,97773.63
2022-09-23T19:17:48.237Z,97768.88
2022-09-23T19:20:17.874Z,97765.91
2022-09-23T19:22:49.002Z,97759.81
2022-09-23T19:25:18.460Z,97760.16
2022-09-23T19:27:47.929Z,97757.72
2022-09-23T19:30:17.154Z,97762.06
2022-09-23T19:32:46.549Z,97761.13
2022-09-23T19:35:17.147Z,97759.59
2022-09-23T19:37:49.130Z,97762.34
2022-09-23T19:40:18.695Z,97771.66
2022-09-23T19:42:47.664Z,97774.41
2022-09-23T19:45:18.461Z,97773.91
2022-09-23T19:47:47.491Z,97774.91
2022-09-23T19:50:17.011Z,97769.56
2022-09-23T19:52:46.050Z,97768.94
2022-09-23T19:55:15.052Z,97769.44
2022-09-23T19:57:44.176Z,97764.41
2022-09-23T20:00:16.051Z,97762.41
2022-09-23T20:02:45.362Z,97761.16
2022-09-23T20:05:18.443Z,97762.44
2022-09-23T20:07:49.480Z,97755.03
2022-09-23T20:10:19.191Z,97754.34
2022-09-23T20:12:48.701Z,97753.91
2022-09-23T20:15:18.137Z,97759.09
2022-09-23T20:17:47.240Z,97760.06
2022-09-23T20:20:16.875Z,97755.25
2022-09-23T20:22:46.450Z,97761.84
2022-09-23T20:25:15.471Z,97758.75
2022-09-23T20:27:44.374Z,97763.91
2022-09-23T20:30:13.790Z,97753.97
2022-09-23T20:32:44.739Z,97762.28
2022-09-23T20:35:14.884Z,97750.53
2022-09-23T20:37:44.126Z,97756.47
2022-09-23T20:40:13.132Z,97756.94
2022-09-23T20:42:42.258Z,97745.13
2022-09-23T20:45:11.630Z,97748.31
2022-09-23T20:47:40.680Z,97748.44
2022-09-23T20:50:10.236Z,97742.00
2022-09-23T20:52:39.183Z,97735.56
2022-09-23T20:55:09.263Z,97728.09
2022-09-23T20:57:38.567Z,97719.56
2022-09-23T21:00:11.467Z,97724.00
2022-09-23T21:02:40.728Z,97715.13
2022-09-23T21:05:11.578Z,97709.94
2022-09-23T21:07:40.939Z,97712.22
2022-09-23T21:10:10.002Z,97708.53
2022-09-23T21:12:39.340Z,97709.00
2022-09-23T21:15:08.854Z,97708.91
2022-09-23T21:17:37.910Z,97710.06
2022-09-23T21:20:07.402Z,97714.25
2022-09-23T21:22:37.084Z,97714.84
2022-09-23T21:27:55.877Z,97710.44
2022-09-23T21:30:25.102Z,97714.41
2022-09-23T21:32:54.245Z,97709.47
2022-09-23T21:35:24.768Z,97705.38
2022-09-23T21:37:54.012Z,97710.00
2022-09-23T21:40:41.418Z,97711.41
2022-09-23T21:43:10.446Z,97703.06
2022-09-23T21:45:39.676Z,97705.44
2022-09-23T21:48:08.643Z,97691.59
2022-09-23T21:50:41.786Z,97690.09
2022-09-23T21:53:11.344Z,97695.78
2022-09-23T21:55:43.326Z,97682.19
2022-09-23T21:58:12.896Z,97675.94
2022-09-23T22:00:41.794Z,97673.78
2022-09-23T22:03:10.830Z,97667.06
2022-09-23T22:05:43.165Z,97669.59
2022-09-23T22:08:12.532Z,97667.28
2022-09-23T22:10:41.581Z,97665.53
2022-09-23T22:13:12.937Z,97658.34
2022-09-23T22:15:43.220Z,97670.59
2022-09-23T22:18:12.806Z,97663.13
2022-09-23T22:20:42.707Z,97667.75
2022-09-23T22:23:11.642Z,97675.34
2022-09-23T22:25:40.955Z,97678.81
2022-09-23T22:28:28.250Z,97681.19
2022-09-23T22:31:17.974Z,97678.00
2022-09-23T22:33:47.193Z,97679.13
2022-09-23T22:36:16.399Z,97679.34
2022-09-23T22:38:45.188Z,97675.63
2022-09-23T22:41:16.472Z,97679.31
2022-09-23T22:43:45.445Z,97677.03
2022-09-23T22:46:14.651Z,97675.00
2022-09-23T22:48:43.963Z,97676.88
2022-09-23T22:51:13.538Z,97683.06
2022-09-23T22:53:42.656Z,97681.13
2022-09-23T22:56:11.609Z,97682.41
2022-09-23T22:58:40.739Z,97679.34
2022-09-23T23:01:12.378Z,97690.31
2022-09-23T23:03:42.681Z,97690.72
2022-09-23T23:06:11.923Z,97691.09
2022-09-23T23:08:41.743Z,97681.97
2022-09-23T23:11:11.260Z,97690.31
2022-09-23T23:13:42.839Z,97696.34
2022-09-23T23:16:14.284Z,97685.75
2022-09-23T23:18:44.605Z,97697.47
2022-09-23T23:21:15.317Z,97688.84
2022-09-23T23:23:46.932Z,97703.00
2022-09-23T23:26:28.093Z,97699.94
2022-09-23T23:28:57.894Z,97701.50
2022-09-23T23:31:29.578Z,97692.78
2022-09-23T23:33:58.721Z,97699.16
2022-09-23T23:36:27.692Z,97701.03
2022-09-23T23:38:57.161Z,97702.72
2022-09-23T23:41:26.148Z,97704.03
2022-09-23T23:43:58.267Z,97700.81
2022-09-23T23:46:32.669Z,97695.84
2022-09-23T23:49:02.401Z,97702.34
2022-09-23T23:51:31.921Z,97707.19
2022-09-23T23:54:01.634Z,97707.44
2022-09-23T23:56:32.875Z,97705.44
2022-09-23T23:59:06.360Z,97708.59
